Gladwin, Michigan
Current Conditions -  °F | °C
As of 8:52 PM on Saturday 25 Oct 2014 (Local Time) from KIKW Reporting Station
Clear Clear  
Wind Chill: 54°   Ceiling: Unl
Heat Index: 54°   Visibility: 10mi
Dew Point: 32°   Wind: 6mph
Humidity: 44%   Direction: 260°W
Pressure: 29.77"   Gusts: NA
Location:  43.98°N, 84.49°W
Report Text: KIKW 260052Z AUTO 26005KT 10SM CLR 12/00 A2977 RMK AO2 T01200000
Loading
Personal Weather Stations






























Interactive Weather Map
Tropical Storm Tracking
New forecast layout! Learn more

10-Day Weather Forecast

Advertisements
Track Severe Weather on mobile